Time;durP1;ratioP1;P1;durP2;ratioP2;P2;SDS_P1;SDS_P2;PMS_P1;PMS_P2;Temp;Humidity;BMP_temperature;BMP_pressure;BME280_temperature;BME280_humidity;BME280_pressure;Samples;Min_cycle;Max_cycle;Signal;HPM_P1;HPM_P2
2023/12/09 00:02:10;;;;;;;179.88;33.50;;;;;;;5.67;100.00;100902.63;4911560;28;20420;-77
2023/12/09 00:04:38;;;;;;;167.75;34.38;;;;;;;5.68;100.00;100903.53;4935827;28;20038;-77
2023/12/09 00:07:05;;;;;;;156.27;32.85;;;;;;;5.69;100.00;100916.66;4903889;28;20149;-78
2023/12/09 00:09:32;;;;;;;154.00;33.10;;;;;;;5.69;100.00;100906.19;4947905;28;20055;-77
2023/12/09 00:12:00;;;;;;;161.88;31.95;;;;;;;5.71;100.00;100907.09;4917323;28;20054;-77
2023/12/09 00:14:27;;;;;;;147.07;30.67;;;;;;;5.71;100.00;100906.19;4926477;28;20043;-76
2023/12/09 00:16:55;;;;;;;155.48;32.88;;;;;;;5.72;100.00;100905.38;4928963;28;20039;-76
2023/12/09 00:19:22;;;;;;;152.77;32.05;;;;;;;5.73;100.00;100908.03;4932625;28;20047;-76
2023/12/09 00:21:50;;;;;;;151.10;32.72;;;;;;;5.74;100.00;100904.53;4944231;28;20065;-76
2023/12/09 00:24:17;;;;;;;160.65;32.58;;;;;;;5.74;100.00;100912.38;4916923;28;20416;-76
2023/12/09 00:26:44;;;;;;;134.63;33.38;;;;;;;5.76;100.00;100897.63;4908119;28;20051;-77
2023/12/09 00:29:12;;;;;;;137.15;30.85;;;;;;;5.77;100.00;100902.00;4928983;28;20047;-76
2023/12/09 00:31:39;;;;;;;150.30;33.58;;;;;;;5.79;100.00;100904.66;4931538;28;20075;-77
2023/12/09 00:34:07;;;;;;;133.73;30.80;;;;;;;5.79;100.00;100908.16;4931277;28;20058;-76
2023/12/09 00:36:34;;;;;;;160.93;32.28;;;;;;;5.82;100.00;100899.50;4929346;28;20073;-76
2023/12/09 00:39:02;;;;;;;158.43;32.25;;;;;;;5.81;100.00;100900.34;4911264;28;20049;-76
2023/12/09 00:41:29;;;;;;;145.55;32.53;;;;;;;5.82;100.00;100910.84;4947791;28;20059;-76
2023/12/09 00:43:56;;;;;;;144.95;31.85;;;;;;;5.83;100.00;100917.84;4948570;28;20057;-77
2023/12/09 00:46:24;;;;;;;136.85;32.92;;;;;;;5.84;100.00;100922.22;4920616;28;20424;-76
2023/12/09 00:48:51;;;;;;;139.10;31.15;;;;;;;5.85;100.00;100918.75;4967853;28;20046;-77
2023/12/09 00:51:19;;;;;;;131.77;30.77;;;;;;;5.86;100.00;100911.81;4965158;28;20054;-77
2023/12/09 00:53:46;;;;;;;132.43;31.88;;;;;;;5.88;100.00;100911.81;4932350;28;20054;-77
2023/12/09 00:56:13;;;;;;;131.98;31.65;;;;;;;5.89;100.00;100908.38;4904490;28;20519;-77
2023/12/09 00:58:59;;;;;;;166.73;32.65;;;;;;;5.90;100.00;100915.34;4922486;28;20059;-77
2023/12/09 01:01:26;;;;;;;147.48;38.72;;;;;;;5.90;100.00;100915.34;4934681;28;20043;-77
2023/12/09 01:03:53;;;;;;;150.57;40.05;;;;;;;5.91;100.00;100906.69;4945067;28;20043;-77
2023/12/09 01:06:21;;;;;;;183.27;44.22;;;;;;;5.93;100.00;100913.69;4945955;28;20051;-77
2023/12/09 01:08:48;;;;;;;139.10;41.65;;;;;;;5.93;100.00;100904.97;4950356;28;20046;-77
2023/12/09 01:11:16;;;;;;;153.98;44.15;;;;;;;5.94;100.00;100906.75;4892545;28;20077;-77
2023/12/09 01:13:43;;;;;;;177.98;43.50;;;;;;;5.94;100.00;100905.03;4913553;28;20043;-77
2023/12/09 01:16:10;;;;;;;168.50;42.95;;;;;;;5.94;100.00;100902.41;4932611;28;20492;-76
2023/12/09 01:18:38;;;;;;;170.43;41.72;;;;;;;5.94;100.00;100910.25;4938490;28;20047;-76
2023/12/09 01:21:05;;;;;;;156.05;41.85;;;;;;;5.96;100.00;100910.31;4909048;29;20428;-76
2023/12/09 01:23:33;;;;;;;151.75;39.17;;;;;;;5.96;100.00;100905.09;4920311;29;20040;-76
2023/12/09 01:26:00;;;;;;;151.50;45.40;;;;;;;5.96;100.00;100897.25;4909379;29;20061;-76
2023/12/09 01:28:27;;;;;;;165.05;43.75;;;;;;;5.97;100.00;100893.75;4872749;29;20774;-77
2023/12/09 01:30:55;;;;;;;172.57;46.67;;;;;;;5.97;100.00;100899.00;4914843;29;20049;-77
2023/12/09 01:33:22;;;;;;;157.27;42.70;;;;;;;5.97;100.00;100906.84;4881871;29;20051;-76
2023/12/09 01:35:50;;;;;;;148.25;35.50;;;;;;;5.97;100.00;100902.53;4910003;29;20051;-77
2023/12/09 01:38:17;;;;;;;143.13;40.22;;;;;;;5.98;100.00;100912.13;4912783;29;20402;-77
2023/12/09 01:40:51;;;;;;;151.25;41.20;;;;;;;5.99;100.00;100911.28;4905847;29;20043;-77
2023/12/09 01:43:19;;;;;;;143.32;42.05;;;;;;;6.00;100.00;100909.53;4883260;29;20050;-76
2023/12/09 01:45:47;;;;;;;147.30;41.17;;;;;;;6.00;100.00;100901.69;4946278;29;20055;-77
2023/12/09 01:48:15;;;;;;;144.55;41.30;;;;;;;6.01;100.00;100911.28;4927881;29;20608;-77
2023/12/09 01:50:43;;;;;;;144.13;39.50;;;;;;;6.02;100.00;100915.69;4924014;29;20055;-77
2023/12/09 01:53:11;;;;;;;120.15;38.55;;;;;;;6.02;100.00;100911.34;4919878;29;20047;-76
2023/12/09 01:55:40;;;;;;;142.07;40.03;;;;;;;6.04;100.00;100911.38;4912376;29;20047;-76
2023/12/09 01:58:08;;;;;;;117.68;38.00;;;;;;;6.05;100.00;100910.53;4863667;29;20063;-77
2023/12/09 02:00:38;;;;;;;129.93;38.88;;;;;;;6.06;100.00;100904.44;4912988;29;20062;-76
2023/12/09 02:03:06;;;;;;;128.15;38.97;;;;;;;6.06;100.00;100907.06;4928369;29;20047;-77
2023/12/09 02:05:33;;;;;;;136.75;41.03;;;;;;;6.08;100.00;100910.59;4911086;29;20616;-77
2023/12/09 02:08:01;;;;;;;123.95;36.58;;;;;;;6.08;100.00;100913.19;4913872;29;20061;-76
2023/12/09 02:10:28;;;;;;;127.82;40.35;;;;;;;6.09;100.00;100906.22;4916454;29;20083;-77
2023/12/09 02:13:13;;;;;;;131.40;37.95;;;;;;;6.11;100.00;100901.94;4912089;29;20051;-77
2023/12/09 02:15:49;;;;;;;130.98;38.65;;;;;;;6.12;100.00;100901.94;4923736;29;20062;-77
2023/12/09 02:18:16;;;;;;;146.02;39.80;;;;;;;6.13;100.00;100882.81;4906427;29;20051;-76
2023/12/09 02:20:44;;;;;;;134.05;37.90;;;;;;;6.15;100.00;100890.69;4939959;28;20051;-77
2023/12/09 02:23:12;;;;;;;135.30;39.67;;;;;;;6.14;100.00;100881.94;4932441;28;20415;-76
2023/12/09 02:25:40;;;;;;;120.68;38.65;;;;;;;6.14;100.00;100871.47;4948234;28;20046;-77
2023/12/09 02:28:28;;;;;;;152.10;38.65;;;;;;;6.14;100.00;100874.09;4951579;28;20047;-77
2023/12/09 02:31:13;;;;;;;111.85;34.42;;;;;;;6.15;100.00;100873.25;4940135;28;20051;-77
2023/12/09 02:33:43;;;;;;;124.63;37.33;;;;;;;6.17;100.00;100875.91;4935303;28;20051;-76
2023/12/09 02:36:17;;;;;;;118.35;35.90;;;;;;;6.17;100.00;100876.78;4944430;28;20385;-76
2023/12/09 02:38:45;;;;;;;135.77;36.00;;;;;;;6.18;100.00;100868.09;4950303;28;20039;-77
2023/12/09 02:41:13;;;;;;;117.82;36.78;;;;;;;6.18;100.00;100864.56;4967812;28;20054;-77
2023/12/09 02:43:45;;;;;;;121.65;35.97;;;;;;;6.18;100.00;100862.88;4929613;28;20046;-77
2023/12/09 02:46:15;;;;;;;109.65;36.25;;;;;;;6.19;100.00;100859.38;4925689;29;20543;-77
2023/12/09 02:48:42;;;;;;;108.32;36.28;;;;;;;6.20;100.00;100862.88;4949228;28;20504;-77
2023/12/09 02:51:10;;;;;;;109.82;34.78;;;;;;;6.20;100.00;100865.47;4951360;28;20058;-78
2023/12/09 02:53:37;;;;;;;111.28;35.58;;;;;;;6.20;100.00;100852.41;4920042;28;20602;-76
2023/12/09 02:56:05;;;;;;;95.93;34.53;;;;;;;6.20;100.00;100852.41;4949681;28;20393;-77
2023/12/09 02:58:33;;;;;;;95.82;33.65;;;;;;;6.19;100.00;100851.53;4954020;28;20051;-77
2023/12/09 03:01:00;;;;;;;115.15;33.92;;;;;;;6.20;100.00;100861.16;4895691;28;20432;-77
2023/12/09 03:03:28;;;;;;;107.38;36.00;;;;;;;6.21;100.00;100848.94;4920018;28;20497;-76
2023/12/09 03:05:55;;;;;;;117.70;34.47;;;;;;;6.19;100.00;100838.44;4929072;29;20039;-76
2023/12/09 03:08:22;;;;;;;110.40;35.28;;;;;;;6.19;100.00;100846.28;4930986;28;20074;-77
2023/12/09 03:10:50;;;;;;;114.72;34.75;;;;;;;6.21;100.00;100841.09;4947599;28;20051;-77
2023/12/09 03:13:18;;;;;;;96.38;32.03;;;;;;;6.20;100.00;100842.84;4932444;28;20050;-77
2023/12/09 03:15:45;;;;;;;109.65;33.25;;;;;;;6.21;100.00;100834.13;4896752;28;20046;-77
2023/12/09 03:18:12;;;;;;;113.72;33.55;;;;;;;6.20;100.00;100827.13;4932402;28;20396;-77
2023/12/09 03:20:40;;;;;;;110.40;33.67;;;;;;;6.20;100.00;100823.63;4945222;28;20494;-77
2023/12/09 03:23:07;;;;;;;91.85;32.67;;;;;;;6.20;100.00;100827.13;4902466;28;20074;-77
2023/12/09 03:25:34;;;;;;;86.35;32.15;;;;;;;6.20;100.00;100824.53;4946431;28;20035;-77
2023/12/09 03:28:02;;;;;;;95.78;31.83;;;;;;;6.20;100.00;100821.91;4930296;29;20051;-77
2023/12/09 03:30:30;;;;;;;90.10;32.33;;;;;;;6.21;100.00;100820.16;4938581;28;20047;-77
2023/12/09 03:32:57;;;;;;;93.90;32.67;;;;;;;6.20;100.00;100811.44;4881196;28;20044;-77
2023/12/09 03:35:25;;;;;;;95.60;32.33;;;;;;;6.20;100.00;100810.53;4962290;28;20039;-77
2023/12/09 03:37:52;;;;;;;93.00;31.20;;;;;;;6.19;100.00;100827.97;4916697;28;20076;-76
2023/12/09 03:40:19;;;;;;;81.68;30.05;;;;;;;6.21;100.00;100818.41;4922901;28;20065;-77
2023/12/09 03:42:47;;;;;;;82.18;28.88;;;;;;;6.21;100.00;100822.78;4915824;29;20066;-77
2023/12/09 03:45:14;;;;;;;97.15;32.38;;;;;;;6.21;100.00;100818.41;4930023;28;20043;-77
2023/12/09 03:47:41;;;;;;;88.43;29.50;;;;;;;6.23;100.00;100821.94;4899778;29;20051;-77
2023/12/09 03:50:09;;;;;;;91.25;30.10;;;;;;;6.23;100.00;100815.84;4924148;28;20062;-76
2023/12/09 03:52:37;;;;;;;95.13;31.92;;;;;;;6.23;100.00;100821.06;4941245;28;20047;-77
2023/12/09 03:55:04;;;;;;;85.82;28.90;;;;;;;6.23;100.00;100808.00;4906841;29;20051;-78
2023/12/09 03:57:31;;;;;;;90.70;30.85;;;;;;;6.23;100.00;100795.78;4922591;29;20050;-76
2023/12/09 03:59:59;;;;;;;96.28;30.77;;;;;;;6.23;100.00;100801.00;4933025;29;20051;-76
2023/12/09 04:02:26;;;;;;;103.75;31.67;;;;;;;6.22;100.00;100794.03;4865780;29;20090;-77
2023/12/09 04:04:54;;;;;;;108.10;33.20;;;;;;;6.22;100.00;100806.25;4952208;28;20031;-77
2023/12/09 04:07:22;;;;;;;93.13;31.23;;;;;;;6.23;100.00;100805.38;4917313;28;20054;-77
2023/12/09 04:09:50;;;;;;;95.75;31.13;;;;;;;6.22;100.00;100807.13;4951765;28;20047;-77
2023/12/09 04:12:17;;;;;;;90.75;29.88;;;;;;;6.22;100.00;100803.63;4917185;29;20073;-77
2023/12/09 04:14:44;;;;;;;88.90;28.48;;;;;;;6.22;100.00;100804.50;4913524;29;20521;-77
2023/12/09 04:17:12;;;;;;;91.22;30.05;;;;;;;6.22;100.00;100793.16;4955401;28;20090;-77
2023/12/09 04:19:39;;;;;;;100.13;31.05;;;;;;;6.22;100.00;100804.50;4868259;29;20047;-77
2023/12/09 04:22:07;;;;;;;84.10;28.88;;;;;;;6.23;100.00;100802.75;4916987;29;20052;-76
2023/12/09 04:24:34;;;;;;;84.13;26.98;;;;;;;6.23;100.00;100810.59;4949201;28;20116;-77
2023/12/09 04:27:02;;;;;;;76.05;29.02;;;;;;;6.21;100.00;100807.97;4888738;28;20066;-78
2023/12/09 04:29:29;;;;;;;89.97;29.70;;;;;;;6.20;100.00;100807.91;4939728;29;20047;-76
2023/12/09 04:31:57;;;;;;;83.07;28.48;;;;;;;6.20;100.00;100811.44;4931992;28;20050;-76
2023/12/09 04:34:26;;;;;;;74.53;27.30;;;;;;;6.18;100.00;100810.53;4908250;28;20048;-77
2023/12/09 04:36:53;;;;;;;77.78;26.95;;;;;;;6.17;100.00;100810.50;4891662;28;20051;-77
2023/12/09 04:39:20;;;;;;;75.18;26.63;;;;;;;6.16;100.00;100812.22;4913961;29;20058;-77
2023/12/09 04:41:48;;;;;;;72.00;25.92;;;;;;;6.16;100.00;100807.00;4903709;29;20109;-77
2023/12/09 04:44:15;;;;;;;59.60;24.55;;;;;;;6.16;100.00;100814.84;4928563;29;20057;-77
2023/12/09 04:46:42;;;;;;;71.45;24.20;;;;;;;6.17;100.00;100816.59;4936412;28;20046;-77
2023/12/09 04:49:10;;;;;;;74.60;25.50;;;;;;;6.17;100.00;100802.66;4880889;28;20264;-76
2023/12/09 04:51:38;;;;;;;61.30;25.17;;;;;;;6.17;100.00;100805.25;4937416;28;20419;-77
2023/12/09 04:54:05;;;;;;;68.80;26.08;;;;;;;6.16;100.00;100801.78;4906689;28;20055;-78
2023/12/09 04:56:33;;;;;;;74.55;23.20;;;;;;;6.16;100.00;100809.63;4904693;29;20428;-77
2023/12/09 04:59:00;;;;;;;62.75;22.77;;;;;;;6.18;100.00;100807.00;4933515;28;20415;-77
2023/12/09 05:01:28;;;;;;;59.13;22.42;;;;;;;6.16;100.00;100799.16;4913792;29;20501;-77
2023/12/09 05:03:56;;;;;;;68.32;22.90;;;;;;;6.18;100.00;100809.63;4890429;28;20051;-76
2023/12/09 05:06:23;;;;;;;59.92;23.33;;;;;;;6.16;100.00;100807.00;4891126;29;20047;-77
2023/12/09 05:08:51;;;;;;;70.55;22.48;;;;;;;6.16;100.00;100798.25;4928486;29;20051;-76
2023/12/09 05:11:21;;;;;;;67.47;22.67;;;;;;;6.15;100.00;100800.00;4914573;29;20051;-78
2023/12/09 05:13:48;;;;;;;54.53;21.85;;;;;;;6.16;100.00;100801.78;4934076;29;20055;-77
2023/12/09 05:16:16;;;;;;;54.47;23.40;;;;;;;6.15;100.00;100788.66;4928776;28;20464;-77
2023/12/09 05:18:43;;;;;;;58.45;21.75;;;;;;;6.16;100.00;100783.44;4921997;29;20068;-77
2023/12/09 05:21:14;;;;;;;64.97;21.55;;;;;;;6.15;100.00;100776.44;4866775;28;20433;-77
2023/12/09 05:23:42;;;;;;;61.58;22.08;;;;;;;6.15;100.00;100780.81;4923428;28;20062;-77
2023/12/09 05:26:31;;;;;;;66.60;22.98;;;;;;;6.15;100.00;100772.94;4902314;28;20046;-76
2023/12/09 05:28:58;;;;;;;56.85;20.23;;;;;;;6.14;100.00;100772.03;4965054;28;20047;-77
2023/12/09 05:31:26;;;;;;;61.53;20.63;;;;;;;6.14;100.00;100777.28;4930820;28;20071;-77
2023/12/09 05:33:54;;;;;;;61.25;22.98;;;;;;;6.14;100.00;100774.66;4946904;28;20055;-77
2023/12/09 05:36:21;;;;;;;54.88;22.08;;;;;;;6.14;100.00;100784.25;4923504;28;23067;-76
2023/12/09 05:38:49;;;;;;;50.25;20.20;;;;;;;6.13;100.00;100788.63;4924587;28;20415;-77
2023/12/09 05:41:16;;;;;;;51.85;20.02;;;;;;;6.12;100.00;100784.22;4916930;28;23780;-77
2023/12/09 05:43:43;;;;;;;62.40;21.83;;;;;;;6.13;100.00;100785.13;4928911;28;20054;-77
2023/12/09 05:46:19;;;;;;;57.72;20.15;;;;;;;6.12;100.00;100776.38;4922079;28;20424;-77
2023/12/09 05:48:47;;;;;;;51.05;19.10;;;;;;;6.13;100.00;100772.91;4928681;28;20503;-77
2023/12/09 05:51:14;;;;;;;63.90;19.67;;;;;;;6.13;100.00;100774.66;4891376;28;20043;-76
2023/12/09 05:53:42;;;;;;;59.95;18.70;;;;;;;6.13;100.00;100772.91;4955486;28;20042;-77
2023/12/09 05:56:11;;;;;;;56.83;20.05;;;;;;;6.12;100.00;100763.28;4958403;28;20136;-77
2023/12/09 05:58:39;;;;;;;60.10;19.23;;;;;;;6.13;100.00;100779.88;4953149;28;20051;-77
2023/12/09 06:01:07;;;;;;;56.95;19.15;;;;;;;6.12;100.00;100771.13;4944299;28;20046;-76
2023/12/09 06:03:34;;;;;;;52.92;18.70;;;;;;;6.12;100.00;100768.50;4962367;28;20412;-77
2023/12/09 06:06:03;;;;;;;54.10;19.88;;;;;;;6.11;100.00;100756.31;4942918;28;20420;-77
2023/12/09 06:08:31;;;;;;;60.78;20.30;;;;;;;6.11;100.00;100756.31;4906450;28;20058;-77
2023/12/09 06:10:59;;;;;;;59.05;18.95;;;;;;;6.12;100.00;100755.44;4919052;28;20047;-77
2023/12/09 06:13:26;;;;;;;58.30;19.20;;;;;;;6.12;100.00;100749.31;4933733;28;20051;-77
2023/12/09 06:15:53;;;;;;;83.07;21.73;;;;;;;6.12;100.00;100754.56;4946770;28;20054;-77
2023/12/09 06:18:21;;;;;;;50.67;19.08;;;;;;;6.12;100.00;100755.44;4920169;28;20047;-77
2023/12/09 06:20:48;;;;;;;63.90;19.15;;;;;;;6.12;100.00;100744.97;4964763;28;20057;-77
2023/12/09 06:23:15;;;;;;;49.60;19.05;;;;;;;6.12;100.00;100755.44;4905978;28;20050;-77
2023/12/09 06:25:42;;;;;;;56.22;19.52;;;;;;;6.11;100.00;100740.59;4956203;28;20039;-77
2023/12/09 06:28:10;;;;;;;52.00;19.00;;;;;;;6.14;100.00;100734.53;4915647;28;20055;-79
2023/12/09 06:30:37;;;;;;;57.47;20.42;;;;;;;6.13;100.00;100723.19;4943868;28;20075;-76
2023/12/09 06:33:05;;;;;;;51.00;18.90;;;;;;;6.13;100.00;100720.59;4912779;28;20435;-77
2023/12/09 06:35:32;;;;;;;52.10;17.83;;;;;;;6.14;100.00;100713.59;4927343;29;20436;-78
2023/12/09 06:38:00;;;;;;;54.90;17.92;;;;;;;6.14;100.00;100711.00;4922329;28;20910;-76
2023/12/09 06:40:27;;;;;;;54.45;17.35;;;;;;;6.13;100.00;100707.50;4905222;28;20826;-77
2023/12/09 06:42:54;;;;;;;50.85;17.27;;;;;;;6.13;100.00;100712.75;4935510;28;20488;-77
2023/12/09 06:45:22;;;;;;;39.40;12.93;;;;;;;6.12;100.00;100703.09;4910955;28;20064;-77
2023/12/09 06:47:53;;;;;;;54.65;15.63;;;;;;;6.12;100.00;100700.50;4946596;28;20046;-77
2023/12/09 06:50:21;;;;;;;44.58;14.30;;;;;;;6.12;100.00;100707.47;4941667;28;20042;-77
2023/12/09 06:52:49;;;;;;;66.13;16.40;;;;;;;6.11;100.00;100708.34;4913716;28;20043;-78
2023/12/09 06:55:16;;;;;;;36.38;12.80;;;;;;;6.10;100.00;100696.09;4895755;28;20051;-77
2023/12/09 06:57:44;;;;;;;45.03;13.02;;;;;;;6.11;100.00;100700.50;4963487;28;20050;-77
2023/12/09 07:00:12;;;;;;;52.75;15.95;;;;;;;6.09;100.00;100705.69;4891400;28;20054;-77
2023/12/09 07:02:40;;;;;;;42.67;14.43;;;;;;;6.09;100.00;100692.59;4942705;28;20515;-77
2023/12/09 07:05:23;;;;;;;41.28;11.10;;;;;;;6.08;100.00;100698.69;4934076;28;20061;-78
2023/12/09 07:07:50;;;;;;;33.70;13.13;;;;;;;6.08;100.00;100690.81;4946913;28;20066;-77
2023/12/09 07:10:18;;;;;;;45.58;13.30;;;;;;;6.08;100.00;100689.97;4905967;28;20817;-77
2023/12/09 07:12:45;;;;;;;44.28;12.30;;;;;;;6.09;100.00;100687.38;4908619;28;20059;-77
2023/12/09 07:15:13;;;;;;;42.92;13.35;;;;;;;6.09;100.00;100687.38;4966023;28;20047;-76
2023/12/09 07:17:41;;;;;;;50.40;13.85;;;;;;;6.07;100.00;100681.25;4900252;28;20515;-78
2023/12/09 07:20:09;;;;;;;39.15;13.55;;;;;;;6.08;100.00;100687.34;4916516;28;20051;-77
2023/12/09 07:22:37;;;;;;;39.92;13.43;;;;;;;6.07;100.00;100683.84;4931637;28;20412;-77
2023/12/09 07:25:05;;;;;;;50.72;13.95;;;;;;;6.06;100.00;100682.06;4907860;28;20055;-77
2023/12/09 07:27:33;;;;;;;52.70;13.15;;;;;;;6.04;100.00;100683.78;4922984;28;20047;-77
2023/12/09 07:30:00;;;;;;;46.60;14.30;;;;;;;6.04;100.00;100678.53;4932433;28;20063;-77
2023/12/09 07:32:28;;;;;;;52.63;14.30;;;;;;;6.03;100.00;100677.69;4937833;28;20047;-77
2023/12/09 07:34:56;;;;;;;32.63;11.32;;;;;;;6.02;100.00;100673.28;4942085;28;20463;-77
2023/12/09 07:37:24;;;;;;;39.80;11.45;;;;;;;6.02;100.00;100680.25;4933566;28;20047;-77
2023/12/09 07:39:51;;;;;;;30.77;10.27;;;;;;;5.99;100.00;100670.63;4931129;28;20671;-77
2023/12/09 07:42:19;;;;;;;32.35;9.82;;;;;;;5.97;100.00;100669.72;4880933;28;20043;-77
2023/12/09 07:44:47;;;;;;;32.53;11.95;;;;;;;5.96;100.00;100662.72;4942671;28;20500;-76
2023/12/09 07:47:14;;;;;;;30.17;10.18;;;;;;;5.96;100.00;100664.44;4919977;28;20496;-77
2023/12/09 07:49:42;;;;;;;31.95;10.70;;;;;;;5.95;100.00;100654.78;4965698;28;20054;-76
2023/12/09 07:52:09;;;;;;;27.88;10.00;;;;;;;5.93;100.00;100662.59;4919170;28;20050;-78
2023/12/09 07:54:37;;;;;;;36.78;11.32;;;;;;;5.93;100.00;100661.75;4948088;28;20070;-77
2023/12/09 07:57:04;;;;;;;32.80;10.68;;;;;;;5.93;100.00;100664.34;4913349;28;20684;-77
2023/12/09 07:59:31;;;;;;;40.40;10.98;;;;;;;5.92;100.00;100657.38;4939961;28;20062;-77
2023/12/09 08:01:59;;;;;;;43.13;11.48;;;;;;;5.92;100.00;100662.59;4934189;28;20903;-77
2023/12/09 08:04:26;;;;;;;42.85;11.65;;;;;;;5.93;100.00;100651.28;4947805;28;20061;-77
2023/12/09 08:06:54;;;;;;;39.25;12.02;;;;;;;5.92;100.00;100642.56;4927720;28;20059;-78
2023/12/09 08:09:21;;;;;;;44.45;12.10;;;;;;;5.92;100.00;100639.06;4910854;29;20055;-78
2023/12/09 08:11:49;;;;;;;37.65;11.75;;;;;;;5.93;100.00;100638.19;4879065;28;20099;-78
2023/12/09 08:14:19;;;;;;;;;;;;;;;5.91;100.00;100635.53;4888387;28;20059;-77
2023/12/09 08:16:47;;;;;;;44.42;10.35;;;;;;;5.91;100.00;100632.06;4917510;28;19929;-77
2023/12/09 08:19:14;;;;;;;43.92;12.30;;;;;;;5.92;100.00;100620.75;4934243;28;20424;-78
2023/12/09 08:21:42;;;;;;;34.45;11.63;;;;;;;5.92;100.00;100628.59;4913159;29;20051;-77
2023/12/09 08:24:09;;;;;;;33.13;12.07;;;;;;;5.92;100.00;100626.88;4895304;28;20058;-78
2023/12/09 08:26:37;;;;;;;41.10;11.93;;;;;;;5.93;100.00;100619.88;4931630;28;20055;-77
2023/12/09 08:29:04;;;;;;;37.17;11.60;;;;;;;5.93;100.00;100623.38;4904668;28;20069;-77
2023/12/09 08:31:32;;;;;;;36.13;12.30;;;;;;;5.94;100.00;100612.06;4919728;28;20397;-78
2023/12/09 08:33:59;;;;;;;39.22;11.15;;;;;;;5.95;100.00;100616.47;4953941;28;20507;-77
2023/12/09 08:36:27;;;;;;;44.80;12.40;;;;;;;5.96;100.00;100612.16;4927089;28;20043;-77
2023/12/09 08:38:54;;;;;;;32.78;12.20;;;;;;;5.97;100.00;100613.88;4917518;28;20066;-78
2023/12/09 08:41:22;;;;;;;41.25;13.73;;;;;;;5.97;100.00;100606.03;4960412;28;20053;-77
2023/12/09 08:43:51;;;;;;;34.45;10.70;;;;;;;5.97;100.00;100595.56;4894944;28;20053;-77
2023/12/09 08:46:18;;;;;;;29.90;10.35;;;;;;;5.98;100.00;100598.22;4915701;28;20050;-77
2023/12/09 08:48:46;;;;;;;33.38;9.52;;;;;;;5.97;100.00;100588.63;4947022;28;20051;-78
2023/12/09 08:51:14;;;;;;;21.80;7.70;;;;;;;5.99;100.00;100583.41;4936329;28;20053;-77
2023/12/09 08:53:41;;;;;;;26.17;7.65;;;;;;;5.99;100.00;100575.56;4936880;28;20059;-77
2023/12/09 08:56:09;;;;;;;22.77;7.60;;;;;;;5.99;100.00;100581.69;4916557;28;20440;-77
2023/12/09 08:58:36;;;;;;;25.45;7.03;;;;;;;5.99;100.00;100584.31;4895232;28;20529;-77
2023/12/09 09:01:04;;;;;;;25.75;8.82;;;;;;;5.97;100.00;100585.13;4955535;28;20042;-77
2023/12/09 09:03:31;;;;;;;19.92;7.82;;;;;;;5.97;100.00;100577.28;4928706;28;20051;-77
2023/12/09 09:05:58;;;;;;;32.38;8.40;;;;;;;5.97;100.00;100577.28;4914162;28;20059;-77
2023/12/09 09:08:26;;;;;;;25.33;6.80;;;;;;;5.97;100.00;100580.78;4940962;29;20050;-76
2023/12/09 09:10:54;;;;;;;18.45;6.00;;;;;;;5.97;100.00;100579.88;4923806;28;20055;-78
2023/12/09 09:13:21;;;;;;;25.00;7.40;;;;;;;5.95;100.00;100574.63;4961130;28;20050;-78
2023/12/09 09:15:48;;;;;;;20.63;8.10;;;;;;;5.96;100.00;100576.41;4911547;28;20416;-77
2023/12/09 09:18:16;;;;;;;25.88;5.97;;;;;;;5.96;100.00;100570.28;4916949;28;20136;-78
2023/12/09 09:20:43;;;;;;;15.48;5.47;;;;;;;5.95;100.00;100569.38;4918111;28;20520;-77
2023/12/09 09:23:12;;;;;;;11.60;5.03;;;;;;;5.97;100.00;100565.09;4936831;28;20463;-78
2023/12/09 09:25:40;;;;;;;23.02;5.95;;;;;;;5.99;100.00;100557.25;4903618;28;20051;-77
2023/12/09 09:28:07;;;;;;;22.02;5.20;;;;;;;6.00;100.00;100559.91;4917418;28;20497;-77
2023/12/09 09:30:34;;;;;;;14.55;5.07;;;;;;;6.00;100.00;100551.19;4878775;28;20507;-77
2023/12/09 09:33:02;;;;;;;20.50;4.90;;;;;;;6.01;100.00;100539.84;4902943;28;20047;-77
2023/12/09 09:35:29;;;;;;;18.88;6.20;;;;;;;6.03;100.00;100538.13;4930519;28;20054;-77
2023/12/09 09:37:57;;;;;;;21.42;5.32;;;;;;;6.04;100.00;100518.97;4950386;28;20035;-77
2023/12/09 09:40:24;;;;;;;14.18;5.25;;;;;;;6.04;100.00;100514.63;4917499;28;20050;-77
2023/12/09 09:42:59;;;;;;;18.60;5.07;;;;;;;6.06;100.00;100504.19;4940337;28;20051;-77
2023/12/09 09:45:27;;;;;;;19.15;6.32;;;;;;;6.08;100.00;100502.47;4925323;28;20050;-77
2023/12/09 09:48:04;;;;;;;26.77;10.13;;;;;;;6.11;100.00;100486.84;4943985;28;20047;-77
2023/12/09 09:50:41;;;;;;;28.77;14.38;;;;;;;6.15;100.00;100495.63;4925256;28;20050;-77
2023/12/09 09:53:12;;;;;;;28.63;12.18;;;;;;;6.17;100.00;100497.38;4919875;28;20050;-79
2023/12/09 09:55:43;;;;;;;35.20;12.25;;;;;;;6.20;100.00;100486.06;4935042;28;20046;-78
2023/12/09 09:58:12;;;;;;;28.27;8.80;;;;;;;6.21;100.00;100478.25;4898606;28;20044;-79
2023/12/09 10:00:40;;;;;;;20.92;6.28;;;;;;;6.22;100.00;100472.19;4915948;28;20829;-82
2023/12/09 10:03:08;;;;;;;15.85;5.18;;;;;;;6.23;100.00;100473.06;4872370;28;20409;-78
2023/12/09 10:05:35;;;;;;;19.30;5.32;;;;;;;6.24;100.00;100465.22;4931759;28;20054;-81
2023/12/09 10:08:03;;;;;;;16.20;4.88;;;;;;;6.26;100.00;100473.13;4918266;28;20062;-78
2023/12/09 10:10:33;;;;;;;18.77;4.35;;;;;;;6.28;100.00;100460.06;4931860;28;20051;-79
2023/12/09 10:13:01;;;;;;;21.75;4.88;;;;;;;6.29;100.00;100452.19;4929055;28;20046;-78
2023/12/09 10:15:28;;;;;;;16.00;4.78;;;;;;;6.31;100.00;100447.00;4910343;28;20051;-79
2023/12/09 10:18:03;;;;;;;15.73;3.72;;;;;;;6.29;100.00;100436.50;4890508;28;20047;-80
2023/12/09 10:20:34;;;;;;;11.40;3.70;;;;;;;6.30;100.00;100419.97;4918017;28;20051;-79
2023/12/09 10:23:02;;;;;;;17.83;4.35;;;;;;;6.31;100.00;100410.38;4929086;28;21529;-79
2023/12/09 10:25:30;;;;;;;20.85;4.70;;;;;;;6.31;100.00;100395.53;4929881;28;20043;-79
2023/12/09 10:27:58;;;;;;;16.50;4.00;;;;;;;6.32;100.00;100388.59;4919964;28;20047;-79
2023/12/09 10:30:25;;;;;;;15.50;4.07;;;;;;;6.34;100.00;100384.25;4943902;28;20055;-80
2023/12/09 10:32:53;;;;;;;20.23;4.68;;;;;;;6.36;100.00;100377.28;4904375;28;20847;-80
2023/12/09 10:35:21;;;;;;;20.30;4.60;;;;;;;6.37;100.00;100381.66;4933805;28;20050;-80
2023/12/09 10:37:49;;;;;;;21.67;4.18;;;;;;;6.40;100.00;100358.13;4915499;28;20054;-80
2023/12/09 10:40:19;;;;;;;28.13;4.55;;;;;;;6.42;100.00;100367.75;4931376;28;20051;-79
2023/12/09 10:42:50;;;;;;;16.15;5.45;;;;;;;6.44;100.00;100358.19;4938020;28;20061;-81
2023/12/09 10:45:17;;;;;;;15.55;4.28;;;;;;;6.46;100.00;100341.63;4948203;28;20039;-80
2023/12/09 10:47:45;;;;;;;16.63;3.78;;;;;;;6.48;100.00;100337.28;4925185;28;20039;-80
2023/12/09 10:50:13;;;;;;;18.67;3.33;;;;;;;6.50;100.00;100333.81;4892904;28;20401;-80
2023/12/09 10:52:41;;;;;;;16.73;3.63;;;;;;;6.52;100.00;100326.00;4938260;28;20061;-80
2023/12/09 10:55:08;;;;;;;20.30;4.07;;;;;;;6.54;100.00;100325.16;4908815;29;20066;-80
2023/12/09 10:57:38;;;;;;;12.23;3.63;;;;;;;6.57;100.00;100321.69;4873449;28;20051;-80
2023/12/09 11:00:10;;;;;;;13.85;2.85;;;;;;;6.58;100.00;100313.88;4921242;28;20484;-80
2023/12/09 11:02:40;;;;;;;12.20;3.10;;;;;;;6.61;100.00;100313.00;4930766;28;20053;-81
2023/12/09 11:05:09;;;;;;;13.52;3.67;;;;;;;6.64;100.00;100295.59;4903759;28;20059;-80
2023/12/09 11:07:38;;;;;;;16.33;4.38;;;;;;;6.66;100.00;100286.88;4936569;28;20047;-79
2023/12/09 11:10:08;;;;;;;11.57;3.00;;;;;;;6.66;100.00;100279.91;4909573;28;20062;-81
2023/12/09 11:12:44;;;;;;;16.13;3.35;;;;;;;6.66;100.00;100276.41;4939952;28;20062;-81
2023/12/09 11:15:19;;;;;;;12.77;4.20;;;;;;;6.66;100.00;100260.72;4921836;28;20047;-82